Time;durP1;ratioP1;P1;durP2;ratioP2;P2;SDS_P1;SDS_P2;PMS_P1;PMS_P2;Temp;Humidity;BMP_temperature;BMP_pressure;BME280_temperature;BME280_humidity;BME280_pressure;Samples;Min_cycle;Max_cycle;Signal;HPM_P1;HPM_P2
2022/11/15 00:01:45;;;;;;;9.40;5.70;;;;;;;3.82;84.11;99581.61;101974;1301;75311;-24
2022/11/15 00:04:30;;;;;;;14.90;8.30;;;;;;;4.25;82.87;99581.71;101936;1301;76851;-24
2022/11/15 00:07:16;;;;;;;10.50;7.50;;;;;;;4.21;82.40;99579.30;101943;1288;75304;-24
2022/11/15 00:10:22;;;;;;;10.80;7.60;;;;;;;3.95;82.96;99578.76;101960;1302;61935;-23
2022/11/15 00:13:12;;;;;;;12.80;8.50;;;;;;;3.71;83.84;99575.39;101912;1296;61784;-24
2022/11/15 00:15:58;;;;;;;12.80;8.70;;;;;;;3.80;84.39;99578.41;101903;1294;76076;-24
2022/11/15 00:18:44;;;;;;;11.70;7.90;;;;;;;4.32;83.15;99572.42;101852;1302;75908;-24
2022/11/15 00:21:35;;;;;;;15.60;10.10;;;;;;;4.33;82.43;99564.86;101965;1305;74154;-24
2022/11/15 00:24:20;;;;;;;14.60;7.90;;;;;;;4.12;82.84;99562.04;101927;1305;62876;-24
2022/11/15 00:27:06;;;;;;;11.20;7.40;;;;;;;3.85;83.67;99559.45;101918;1304;62866;-24
2022/11/15 00:29:53;;;;;;;11.80;6.80;;;;;;;4.06;83.76;99552.48;101947;1302;76321;-24
2022/11/15 00:32:38;;;;;;;15.00;8.70;;;;;;;4.38;82.95;99542.79;101960;1302;76499;-26
2022/11/15 00:35:24;;;;;;;11.10;7.70;;;;;;;4.27;82.80;99540.35;101946;1302;73741;-26
2022/11/15 00:38:10;;;;;;;10.70;7.70;;;;;;;4.00;83.54;99532.34;101927;1305;62790;-27
2022/11/15 00:40:55;;;;;;;15.30;8.20;;;;;;;3.79;84.68;99529.69;101962;1305;62936;-26
2022/11/15 00:43:43;;;;;;;16.60;10.20;;;;;;;4.23;83.94;99525.08;101954;1297;76398;-27
2022/11/15 00:46:29;;;;;;;12.30;7.40;;;;;;;4.46;82.76;99520.04;101969;1305;76855;-26
2022/11/15 00:49:14;;;;;;;16.10;10.30;;;;;;;4.26;82.87;99510.31;101941;1305;75183;-24
2022/11/15 00:52:00;;;;;;;17.20;9.10;;;;;;;3.98;83.62;99509.25;101910;1302;61618;-23
2022/11/15 00:54:45;;;;;;;8.10;5.20;;;;;;;3.93;84.59;99504.67;101947;1305;61679;-24
2022/11/15 00:57:31;;;;;;;13.00;7.30;;;;;;;4.45;83.25;99501.85;101939;1295;76421;-24
2022/11/15 01:00:17;;;;;;;16.90;10.70;;;;;;;4.48;82.35;99502.72;101978;1301;75783;-24
2022/11/15 01:03:03;;;;;;;15.00;8.50;;;;;;;4.29;82.63;99499.90;101922;1305;74145;-24
2022/11/15 01:05:49;;;;;;;13.40;9.10;;;;;;;4.00;83.49;99500.73;101951;1295;62853;-24
2022/11/15 01:08:35;;;;;;;10.70;7.20;;;;;;;4.09;83.74;99500.31;101971;1302;61744;-24
2022/11/15 01:11:21;;;;;;;14.90;8.40;;;;;;;4.46;82.16;99491.48;101972;1297;76329;-24
2022/11/15 01:14:07;;;;;;;14.80;8.20;;;;;;;4.35;81.81;99496.31;101951;1305;76825;-24
2022/11/15 01:16:52;;;;;;;15.00;9.40;;;;;;;4.16;82.21;99493.79;101950;1297;72919;-24
2022/11/15 01:19:38;;;;;;;19.40;10.30;;;;;;;3.91;83.13;99493.42;101980;1302;61539;-24
2022/11/15 01:22:24;;;;;;;14.80;9.50;;;;;;;3.99;83.91;99486.52;101968;1295;62663;-24
2022/11/15 01:25:09;;;;;;;15.70;8.90;;;;;;;4.48;82.34;99485.70;101943;1305;75433;-24
2022/11/15 01:27:55;;;;;;;18.10;8.50;;;;;;;4.54;81.62;99481.98;101936;1288;75529;-25
2022/11/15 01:30:41;;;;;;;15.70;9.10;;;;;;;4.32;81.87;99474.63;101945;1297;75085;-24
2022/11/15 01:33:29;;;;;;;17.10;9.30;;;;;;;4.03;82.87;99471.54;101935;1296;61783;-24
2022/11/15 01:36:21;;;;;;;15.00;9.30;;;;;;;4.07;83.69;99473.09;101850;1302;61728;-24
2022/11/15 01:39:07;;;;;;;20.00;9.90;;;;;;;4.64;82.44;99470.48;101896;1302;76363;-24
2022/11/15 01:41:53;;;;;;;16.20;9.90;;;;;;;4.73;81.70;99469.53;101933;1302;75447;-24
2022/11/15 01:44:42;;;;;;;14.30;9.50;;;;;;;4.54;81.84;99469.76;101922;1296;75142;-24
2022/11/15 01:47:39;;;;;;;22.70;13.50;;;;;;;4.23;82.34;99467.86;101809;1306;62785;-24
2022/11/15 01:50:27;;;;;;;16.30;9.50;;;;;;;4.18;83.25;99462.59;101906;1296;61721;-24
2022/11/15 01:53:14;;;;;;;20.50;9.80;;;;;;;4.69;82.17;99456.51;101858;1305;74876;-24
2022/11/15 01:56:02;;;;;;;19.40;10.90;;;;;;;4.71;81.39;99454.48;101846;1301;75913;-24
2022/11/15 01:58:48;;;;;;;19.40;10.90;;;;;;;4.48;81.74;99450.11;101792;1306;75159;-24
2022/11/15 02:01:34;;;;;;;15.70;8.70;;;;;;;4.16;82.26;99448.08;101938;1302;61791;-24
2022/11/15 02:04:31;;;;;;;21.80;9.30;;;;;;;4.02;83.54;99451.82;101949;1287;61903;-24
2022/11/15 02:07:18;;;;;;;18.90;10.60;;;;;;;4.69;82.52;99450.64;101976;1302;76219;-24
2022/11/15 02:10:08;;;;;;;19.00;9.80;;;;;;;4.92;80.95;99445.85;101885;1305;76789;-24
2022/11/15 02:12:54;;;;;;;22.00;10.70;;;;;;;4.65;80.95;99443.08;101875;1302;75218;-24
2022/11/15 02:15:58;;;;;;;20.40;11.70;;;;;;;4.32;81.88;99445.21;101960;1305;62693;-24
2022/11/15 02:18:59;;;;;;;25.70;11.70;;;;;;;4.00;83.01;99444.19;101913;1297;63036;-24
2022/11/15 02:22:15;;;;;;;37.10;17.40;;;;;;;4.52;82.94;99440.81;101952;1294;75472;-24
2022/11/15 02:25:40;;;;;;;49.70;20.80;;;;;;;4.75;81.52;99438.30;101899;1297;76675;-24
2022/11/15 02:28:39;;;;;;;37.30;18.50;;;;;;;4.52;81.62;99432.02;101663;1306;74164;-24
2022/11/15 02:31:50;;;;;;;44.60;20.90;;;;;;;4.24;82.18;99427.08;101792;1308;62973;-24
2022/11/15 02:34:48;;;;;;;35.00;17.20;;;;;;;4.04;83.30;99429.41;101945;1292;62170;-24
2022/11/15 02:37:36;;;;;;;28.60;13.90;;;;;;;4.65;82.57;99425.23;102076;1297;76447;-24
2022/11/15 02:40:35;;;;;;;28.30;15.00;;;;;;;4.85;81.38;99430.05;102124;1297;76641;-24
2022/11/15 02:43:57;;;;;;;26.00;12.60;;;;;;;4.65;81.36;99429.17;102331;1291;73575;-24
2022/11/15 02:47:12;;;;;;;27.50;14.40;;;;;;;4.25;82.11;99425.48;102189;1301;61756;-24
2022/11/15 02:50:01;;;;;;;22.40;12.10;;;;;;;4.08;83.23;99422.01;102332;1292;61776;-24
2022/11/15 02:52:50;;;;;;;26.20;11.60;;;;;;;4.56;82.46;99418.09;102199;1298;75210;-24
2022/11/15 02:55:40;;;;;;;24.40;12.50;;;;;;;4.66;81.67;99416.74;102068;1291;75612;-24
2022/11/15 02:58:42;;;;;;;22.80;11.70;;;;;;;4.43;82.03;99413.57;102156;1294;74093;-24
2022/11/15 03:01:27;;;;;;;25.20;12.80;;;;;;;4.12;82.89;99405.46;102330;1302;61199;-24
2022/11/15 03:04:46;;;;;;;20.40;11.10;;;;;;;3.95;83.58;99403.54;102286;1302;61204;-24
2022/11/15 03:07:53;;;;;;;18.50;10.40;;;;;;;4.55;83.04;99401.31;102150;1302;74267;-24
2022/11/15 03:11:00;;;;;;;23.20;12.10;;;;;;;4.68;81.91;99394.61;102289;1298;76799;-24
2022/11/15 03:14:12;;;;;;;26.50;13.90;;;;;;;4.43;82.23;99391.61;102290;1299;74354;-24
2022/11/15 03:17:00;;;;;;;24.80;11.60;;;;;;;4.14;83.06;99383.76;102135;1295;62933;-24
2022/11/15 03:19:47;;;;;;;23.50;13.30;;;;;;;4.33;83.61;99383.30;102313;1294;62812;-24
2022/11/15 03:22:35;;;;;;;27.10;13.30;;;;;;;4.76;82.27;99382.52;102169;1296;74828;-24
2022/11/15 03:25:23;;;;;;;25.10;13.20;;;;;;;4.70;81.75;99375.06;102095;1301;76942;-24
2022/11/15 03:28:10;;;;;;;22.10;12.80;;;;;;;4.44;82.27;99374.70;102208;1302;75382;-25
2022/11/15 03:30:56;;;;;;;24.80;13.30;;;;;;;4.21;82.99;99370.32;102245;1298;61805;-25
2022/11/15 03:33:41;;;;;;;16.20;11.00;;;;;;;4.20;83.72;99365.39;102298;1292;61805;-27
2022/11/15 03:36:27;;;;;;;20.90;11.70;;;;;;;4.76;82.60;99363.45;102186;1301;76560;-26
2022/11/15 03:39:13;;;;;;;23.90;11.20;;;;;;;4.87;81.64;99366.29;102139;1298;75702;-26
2022/11/15 03:42:11;;;;;;;27.00;14.40;;;;;;;4.67;81.85;99360.97;102234;1297;75169;-25
2022/11/15 03:45:36;;;;;;;25.70;13.00;;;;;;;4.39;82.54;99358.61;102289;1298;61874;-25
2022/11/15 03:48:24;;;;;;;20.70;10.70;;;;;;;4.25;83.46;99347.98;102088;1299;62760;-23
2022/11/15 03:51:10;;;;;;;18.20;8.50;;;;;;;4.90;82.37;99347.00;102148;1301;75164;-23
2022/11/15 03:53:56;;;;;;;28.80;14.50;;;;;;;5.07;81.21;99342.69;102366;1301;75882;-23
2022/11/15 03:56:41;;;;;;;28.80;14.60;;;;;;;4.94;81.31;99337.71;102236;1302;74247;-23
2022/11/15 03:59:27;;;;;;;29.90;13.70;;;;;;;4.64;81.72;99325.33;102293;1302;61821;-23
2022/11/15 04:02:13;;;;;;;31.10;15.40;;;;;;;4.35;82.48;99324.77;102289;1302;62576;-22
2022/11/15 04:04:59;;;;;;;27.70;12.90;;;;;;;4.39;83.36;99320.42;102290;1298;75521;-23
2022/11/15 04:07:44;;;;;;;25.10;13.10;;;;;;;4.96;82.17;99318.65;102288;1301;75726;-24
2022/11/15 04:10:31;;;;;;;29.20;13.40;;;;;;;5.10;81.40;99312.92;102313;1302;75341;-24
2022/11/15 04:13:17;;;;;;;31.70;17.00;;;;;;;4.91;81.24;99308.45;102290;1298;62772;-24
2022/11/15 04:16:02;;;;;;;32.50;17.10;;;;;;;4.63;81.88;99308.51;102258;1299;61798;-24
2022/11/15 04:24:11;;;;;;;24.30;11.70;;;;;;;4.42;82.70;99305.48;102241;1293;76453;-24
2022/11/15 04:25:10;;;;;;;27.10;14.50;;;;;;;5.31;80.61;99295.92;101850;1305;75500;-24
2022/11/15 04:27:55;;;;;;;28.50;14.30;;;;;;;5.17;80.80;99292.44;102239;1302;61785;-24
2022/11/15 04:30:41;;;;;;;29.60;15.00;;;;;;;4.91;81.12;99289.71;102263;1298;61677;-24
2022/11/15 04:33:27;;;;;;;36.30;17.80;;;;;;;4.62;81.70;99290.37;102301;1292;75360;-24
2022/11/15 04:39:18;;;;;;;19.10;10.70;;;;;;;5.11;82.06;99285.50;102294;1302;74025;-24
2022/11/15 04:42:04;;;;;;;25.80;14.40;;;;;;;5.45;80.22;99286.41;102324;1292;61575;-24
2022/11/15 04:44:49;;;;;;;33.30;17.30;;;;;;;5.28;80.11;99282.86;102274;1297;62146;-24
2022/11/15 04:47:35;;;;;;;32.70;17.50;;;;;;;4.98;80.61;99281.73;102217;1299;75721;-24
2022/11/15 04:50:21;;;;;;;25.10;14.00;;;;;;;4.71;81.60;99279.21;102287;1284;74815;-24
2022/11/15 04:53:06;;;;;;;25.10;12.50;;;;;;;4.51;82.30;99276.48;102321;1300;75147;-24
2022/11/15 04:55:52;;;;;;;27.20;13.40;;;;;;;5.09;81.85;99270.65;102310;1299;61783;-24
2022/11/15 04:58:38;;;;;;;28.70;15.10;;;;;;;5.55;80.40;99269.11;102338;1297;62800;-24
2022/11/15 05:01:24;;;;;;;28.60;16.00;;;;;;;5.48;79.91;99261.41;102332;1295;75386;-24
2022/11/15 05:04:18;;;;;;;31.40;16.40;;;;;;;5.21;80.22;99262.95;102323;1294;76639;-24
2022/11/15 05:07:04;;;;;;;28.40;15.60;;;;;;;4.91;80.90;99259.04;102266;1289;75236;-24
2022/11/15 05:09:50;;;;;;;27.80;14.80;;;;;;;4.67;81.56;99262.41;102359;1298;62645;-24
2022/11/15 05:12:36;;;;;;;29.00;15.50;;;;;;;4.87;82.08;99259.27;102336;1302;62846;-24
2022/11/15 05:15:22;;;;;;;28.50;14.30;;;;;;;5.31;80.94;99256.55;102316;1294;75338;-24
2022/11/15 05:18:08;;;;;;;28.90;15.90;;;;;;;5.27;80.40;99248.85;102308;1299;76662;-24
2022/11/15 05:20:54;;;;;;;37.10;18.40;;;;;;;5.02;80.74;99246.23;102308;1297;75242;-24
2022/11/15 05:23:40;;;;;;;29.70;15.50;;;;;;;4.77;81.37;99241.92;102343;1298;61725;-24
2022/11/15 05:26:27;;;;;;;29.60;14.30;;;;;;;4.58;82.18;99239.64;102307;1293;63046;-24
2022/11/15 05:29:12;;;;;;;27.30;13.60;;;;;;;5.16;81.56;99238.58;102272;1300;76499;-24
2022/11/15 05:31:58;;;;;;;24.00;13.20;;;;;;;5.52;80.00;99239.17;102255;1299;76797;-24
2022/11/15 05:34:44;;;;;;;30.50;15.00;;;;;;;5.37;79.73;99234.33;102261;1301;74067;-24
2022/11/15 05:37:29;;;;;;;28.50;15.30;;;;;;;5.06;80.31;99231.38;102295;1302;61970;-24
2022/11/15 05:40:16;;;;;;;33.70;16.80;;;;;;;4.79;81.29;99226.50;102325;1302;62824;-24
2022/11/15 05:43:02;;;;;;;26.20;14.30;;;;;;;4.75;82.14;99230.67;102339;1302;75243;-24
2022/11/15 05:45:47;;;;;;;30.00;15.50;;;;;;;5.28;80.90;99226.41;102201;1303;76649;-24
2022/11/15 05:48:34;;;;;;;28.90;14.40;;;;;;;5.38;80.20;99225.98;102290;1297;74082;-24
2022/11/15 05:51:20;;;;;;;27.80;15.40;;;;;;;5.19;80.18;99220.52;102191;1302;62791;-24
2022/11/15 05:54:06;;;;;;;26.80;13.70;;;;;;;4.92;81.05;99221.34;102319;1298;61650;-24
2022/11/15 05:56:52;;;;;;;26.30;12.30;;;;;;;4.75;81.73;99219.33;102306;1296;76521;-24
2022/11/15 05:59:38;;;;;;;25.60;11.90;;;;;;;5.28;81.12;99220.53;102335;1299;76785;-24
2022/11/15 06:02:23;;;;;;;37.40;16.30;;;;;;;5.57;79.84;99219.41;102313;1302;75490;-24
2022/11/15 06:05:09;;;;;;;21.80;10.80;;;;;;;5.48;79.42;99218.90;102287;1299;61844;-24
2022/11/15 06:07:58;;;;;;;24.80;13.10;;;;;;;5.23;79.87;99214.45;102271;1297;62746;-24
2022/11/15 06:10:45;;;;;;;32.50;15.60;;;;;;;4.96;80.67;99213.86;102253;1297;76596;-24
2022/11/15 06:13:30;;;;;;;25.00;11.80;;;;;;;4.90;81.38;99210.59;102266;1298;76745;-24
2022/11/15 06:16:17;;;;;;;30.10;14.40;;;;;;;5.48;80.41;99212.17;102187;1302;75123;-24
2022/11/15 06:19:02;;;;;;;28.10;15.20;;;;;;;5.60;79.23;99210.82;102314;1297;62782;-24
2022/11/15 06:21:48;;;;;;;25.00;14.00;;;;;;;5.45;79.37;99203.71;102317;1302;62915;-24
2022/11/15 06:24:34;;;;;;;28.80;14.10;;;;;;;5.20;79.93;99198.62;102295;1295;76440;-27
2022/11/15 06:27:19;;;;;;;17.00;8.80;;;;;;;5.02;80.79;99194.65;102331;1302;75820;-27
2022/11/15 06:30:06;;;;;;;18.80;10.50;;;;;;;5.46;80.62;99196.80;102201;1302;75444;-26
2022/11/15 06:32:59;;;;;;;27.80;13.20;;;;;;;5.71;79.02;99192.45;101994;1306;62877;-26
2022/11/15 06:35:45;;;;;;;28.30;14.00;;;;;;;5.55;79.26;99190.95;102206;1297;61915;-26
2022/11/15 06:38:31;;;;;;;23.20;11.60;;;;;;;5.35;79.75;99189.88;102333;1299;76334;-27
2022/11/15 06:41:17;;;;;;;19.20;10.40;;;;;;;5.12;80.26;99187.02;102323;1302;74755;-23
2022/11/15 06:44:03;;;;;;;24.40;12.40;;;;;;;5.42;80.17;99185.48;102201;1299;75443;-23
2022/11/15 06:46:48;;;;;;;24.10;12.60;;;;;;;5.72;79.35;99185.80;101443;1299;61256;-24
2022/11/15 06:49:34;;;;;;;18.60;11.20;;;;;;;5.67;79.39;99179.27;102330;1302;62911;-24
2022/11/15 06:52:21;;;;;;;27.70;13.80;;;;;;;5.41;79.48;99174.86;102288;1297;76432;-24
2022/11/15 06:55:07;;;;;;;23.40;11.60;;;;;;;5.17;80.52;99170.23;102290;1305;76888;-24
2022/11/15 06:57:54;;;;;;;22.00;11.70;;;;;;;5.17;81.18;99166.61;102123;1305;75098;-24
2022/11/15 07:00:40;;;;;;;27.90;12.70;;;;;;;5.78;79.89;99164.48;102199;1297;62940;-24
2022/11/15 07:03:26;;;;;;;27.10;12.40;;;;;;;5.95;78.61;99161.91;102280;1297;62961;-25
2022/11/15 07:06:12;;;;;;;21.20;12.40;;;;;;;5.78;78.77;99158.06;102333;1298;76869;-24
2022/11/15 07:08:58;;;;;;;25.20;13.20;;;;;;;5.56;79.47;99156.97;102317;1298;76877;-24
2022/11/15 07:11:44;;;;;;;18.60;10.00;;;;;;;5.35;80.26;99148.17;102306;1291;74919;-24
2022/11/15 07:14:29;;;;;;;21.30;10.00;;;;;;;5.82;79.62;99143.55;102224;1303;61836;-24
2022/11/15 07:17:15;;;;;;;26.00;13.10;;;;;;;6.01;78.39;99142.23;102295;1299;62066;-24
2022/11/15 07:20:01;;;;;;;20.00;11.10;;;;;;;5.89;78.59;99139.52;102334;1298;75435;-24
2022/11/15 07:22:47;;;;;;;20.80;11.10;;;;;;;5.60;79.03;99136.02;102291;1302;76708;-24
2022/11/15 07:25:33;;;;;;;19.10;10.50;;;;;;;5.42;79.87;99131.27;102208;1302;75334;-24
2022/11/15 07:28:19;;;;;;;26.70;11.20;;;;;;;5.84;79.90;99125.86;102312;1302;62524;-25
2022/11/15 07:31:07;;;;;;;17.80;8.90;;;;;;;6.14;78.53;99122.55;102276;1296;62861;-24
2022/11/15 07:33:53;;;;;;;23.60;12.00;;;;;;;6.01;78.57;99119.34;102223;1298;76482;-24
2022/11/15 07:36:39;;;;;;;21.40;12.00;;;;;;;5.80;78.96;99119.34;102297;1302;75592;-24
2022/11/15 07:39:24;;;;;;;19.90;10.20;;;;;;;5.61;79.92;99114.30;102289;1305;74196;-24
2022/11/15 07:45:14;;;;;;;;;;;;;;;6.18;78.18;99113.52;102325;1302;61905;-24
2022/11/15 07:48:00;;;;;;;20.90;10.30;;;;;;;6.10;78.23;99111.04;102304;1296;75284;-24
2022/11/15 07:50:46;;;;;;;24.50;9.10;;;;;;;5.83;78.82;99106.27;102301;1302;76830;-24
2022/11/15 07:53:32;;;;;;;17.40;10.50;;;;;;;5.65;80.25;99105.63;102293;1302;74092;-24
2022/11/15 07:56:20;;;;;;;20.80;12.50;;;;;;;6.06;79.24;99102.81;102298;1305;61864;-24
2022/11/15 07:59:06;;;;;;;20.30;11.80;;;;;;;6.34;77.91;99098.18;102276;1297;61877;-24
2022/11/15 08:01:51;;;;;;;14.20;8.70;;;;;;;6.26;78.10;99099.88;102304;1302;75423;-24
2022/11/15 08:04:38;;;;;;;21.40;9.00;;;;;;;6.15;78.21;99096.77;102325;1298;76793;-24
2022/11/15 08:07:23;;;;;;;22.40;11.70;;;;;;;5.91;79.24;99087.49;102237;1298;74127;-24
2022/11/15 08:10:11;;;;;;;16.90;8.40;;;;;;;6.20;78.90;99084.71;102271;1299;61877;-24
2022/11/15 08:13:01;;;;;;;18.20;10.40;;;;;;;6.39;78.29;99079.74;102334;1298;62690;-24
2022/11/15 08:15:47;;;;;;;21.00;11.00;;;;;;;6.39;77.88;99076.99;102161;1303;75374;-24
2022/11/15 08:18:37;;;;;;;22.90;11.80;;;;;;;6.07;78.86;99077.95;102313;1296;75976;-24
2022/11/15 08:21:23;;;;;;;17.00;10.80;;;;;;;5.96;79.81;99072.09;102327;1302;75159;-25
2022/11/15 08:24:10;;;;;;;16.70;9.70;;;;;;;6.51;78.43;99069.19;102272;1294;62852;-25
2022/11/15 08:26:55;;;;;;;17.70;9.20;;;;;;;6.68;76.87;99068.78;102027;1301;61738;-25
2022/11/15 08:29:42;;;;;;;16.20;8.90;;;;;;;6.57;76.82;99061.70;102311;1297;75331;-25
2022/11/15 08:32:28;;;;;;;17.40;10.50;;;;;;;6.56;76.36;99056.77;102203;1299;76668;-25
2022/11/15 08:35:14;;;;;;;8.20;4.90;;;;;;;6.33;77.04;99055.30;102296;1302;75338;-23
2022/11/15 08:38:00;;;;;;;16.50;7.60;;;;;;;6.42;76.74;99045.73;102169;1298;61645;-23
2022/11/15 08:40:45;;;;;;;12.60;7.40;;;;;;;6.81;75.34;99036.51;102143;1300;63014;-24
2022/11/15 08:43:31;;;;;;;15.20;8.80;;;;;;;6.68;75.06;99039.28;102323;1294;75221;-24
2022/11/15 08:46:18;;;;;;;12.00;7.70;;;;;;;6.55;75.92;99038.85;102277;1297;75737;-23
2022/11/15 08:49:04;;;;;;;16.70;9.30;;;;;;;6.54;75.76;99032.95;102320;1297;75356;-23
2022/11/15 08:51:49;;;;;;;15.10;8.50;;;;;;;6.42;76.34;99031.63;102285;1302;63063;-24
2022/11/15 08:54:35;;;;;;;13.00;8.00;;;;;;;6.59;76.06;99024.83;102289;1300;62872;-24
2022/11/15 08:57:21;;;;;;;14.30;9.00;;;;;;;6.88;75.06;99021.59;102305;1299;76349;-23
2022/11/15 09:00:07;;;;;;;16.70;8.90;;;;;;;6.83;74.84;99017.75;102346;1302;76847;-24
2022/11/15 09:02:53;;;;;;;11.10;7.20;;;;;;;6.66;75.33;99015.78;102170;1302;75416;-23
2022/11/15 09:05:39;;;;;;;11.60;6.20;;;;;;;6.42;76.12;99008.84;102294;1302;61827;-24
2022/11/15 09:08:25;;;;;;;15.10;7.90;;;;;;;6.38;76.97;99010.48;102281;1298;62790;-24
2022/11/15 09:11:31;;;;;;;13.60;8.00;;;;;;;6.81;75.42;99005.98;102140;1301;76432;-24
2022/11/15 09:14:17;;;;;;;12.60;7.80;;;;;;;6.74;75.40;99000.57;102293;1297;76036;-24
2022/11/15 09:17:03;;;;;;;14.90;8.60;;;;;;;6.66;75.56;98998.70;102219;1294;75377;-24
2022/11/15 09:19:49;;;;;;;10.10;5.80;;;;;;;6.55;76.53;98998.70;102219;1298;62840;-24
2022/11/15 09:22:36;;;;;;;8.20;5.40;;;;;;;6.36;77.53;98996.47;102252;1299;62601;-24
2022/11/15 09:25:22;;;;;;;9.20;6.60;;;;;;;6.90;75.70;98996.73;102308;1302;76737;-25
2022/11/15 09:28:08;;;;;;;14.70;7.60;;;;;;;6.84;75.58;98989.07;102315;1298;76882;-25
2022/11/15 09:31:01;;;;;;;8.50;5.40;;;;;;;6.73;75.94;98982.02;102319;1294;75029;-26
2022/11/15 09:33:46;;;;;;;9.20;5.90;;;;;;;6.28;77.12;98975.43;102046;1301;61883;-27
2022/11/15 09:36:32;;;;;;;13.80;7.30;;;;;;;6.39;77.13;98973.69;102259;1300;62638;-25
2022/11/15 09:39:18;;;;;;;13.60;6.80;;;;;;;6.73;76.06;98970.95;102256;1302;75395;-25
2022/11/15 09:42:10;;;;;;;15.50;7.90;;;;;;;6.87;75.33;98971.08;102288;1295;75580;-25
2022/11/15 09:45:06;;;;;;;13.50;7.90;;;;;;;6.78;75.53;98960.27;102076;1295;74018;-24
2022/11/15 09:48:07;;;;;;;12.90;8.50;;;;;;;6.44;76.54;98957.02;102171;1301;61762;-24
2022/11/15 09:50:53;;;;;;;11.00;6.80;;;;;;;6.53;76.97;98951.94;102140;1299;61516;-24
2022/11/15 09:53:38;;;;;;;9.60;6.20;;;;;;;6.95;75.88;98945.15;102143;1302;76444;-24
2022/11/15 09:56:30;;;;;;;11.00;6.70;;;;;;;6.96;75.10;98935.91;102188;1300;76567;-24
2022/11/15 09:59:16;;;;;;;14.20;8.10;;;;;;;6.91;75.02;98933.84;102135;1302;74197;-24
2022/11/15 10:01:49;;;;;;;8.90;6.30;;;;;;;6.85;75.23;98934.95;102275;1299;62539;-24
2022/11/15 10:04:17;;;;;;;13.00;6.80;;;;;;;6.68;75.69;98929.55;102016;1293;62627;-24
2022/11/15 10:06:50;;;;;;;9.90;6.00;;;;;;;6.67;76.03;98926.86;102080;1299;76348;-24
2022/11/15 10:09:21;;;;;;;14.20;8.30;;;;;;;7.12;75.06;98922.09;102003;1305;75918;-24
2022/11/15 10:11:49;;;;;;;13.70;8.00;;;;;;;7.26;74.08;98922.87;102067;1301;75235;-24
2022/11/15 10:14:22;;;;;;;14.80;7.70;;;;;;;7.15;74.48;98915.52;102294;1289;61851;-24
2022/11/15 10:16:55;;;;;;;9.40;5.60;;;;;;;7.10;74.55;98915.33;102023;1302;62530;-24
2022/11/15 10:19:33;;;;;;;6.70;4.30;;;;;;;6.83;75.23;98910.80;102227;1292;76429;-24
2022/11/15 10:22:35;;;;;;;10.50;6.40;;;;;;;6.71;76.22;98906.73;102018;1302;76672;-24
2022/11/15 10:25:08;;;;;;;7.40;5.30;;;;;;;7.28;74.57;98908.91;102315;1295;73682;-24
2022/11/15 10:27:35;;;;;;;9.90;6.00;;;;;;;7.33;73.59;98900.08;102363;1294;61535;-24
2022/11/15 10:30:04;;;;;;;6.90;4.40;;;;;;;7.24;73.33;98889.88;102181;1294;62993;-25
2022/11/15 10:32:31;;;;;;;8.60;5.30;;;;;;;7.04;73.44;98887.58;101936;1297;74888;-25
2022/11/15 10:34:58;;;;;;;9.70;5.70;;;;;;;6.93;73.56;98886.95;102202;1301;76595;-25
2022/11/15 10:37:29;;;;;;;7.10;4.40;;;;;;;6.65;74.61;98886.48;102130;1300;75150;-25
2022/11/15 10:40:04;;;;;;;9.50;5.00;;;;;;;6.92;74.41;98886.00;102044;1295;61766;-23
2022/11/15 10:42:31;;;;;;;9.30;5.20;;;;;;;7.41;72.73;98878.14;101920;1300;61091;-25
2022/11/15 10:44:58;;;;;;;9.50;4.90;;;;;;;7.48;72.36;98883.32;102325;1299;75616;-25
2022/11/15 10:47:26;;;;;;;10.10;6.40;;;;;;;7.35;72.47;98882.05;102239;1301;76829;-25
2022/11/15 10:49:59;;;;;;;10.60;6.70;;;;;;;7.12;73.24;98880.96;102103;1302;75017;-25
2022/11/15 10:52:26;;;;;;;115.30;51.40;;;;;;;6.81;74.59;98878.83;102019;1296;61126;-25
2022/11/15 10:54:55;;;;;;;18.30;9.80;;;;;;;6.67;75.16;98872.66;102291;1293;61333;-25
2022/11/15 10:57:23;;;;;;;9.50;6.20;;;;;;;6.94;75.08;98865.52;102328;1302;76033;-25
2022/11/15 10:59:52;;;;;;;8.00;5.30;;;;;;;7.29;73.29;98858.22;102212;1294;76749;-25
2022/11/15 11:02:42;;;;;;;10.00;5.30;;;;;;;7.32;72.58;98850.27;102161;1302;74079;-25
2022/11/15 11:05:28;;;;;;;10.30;5.40;;;;;;;7.11;73.57;98855.67;102160;1302;61874;-25
2022/11/15 11:08:01;;;;;;;8.10;5.70;;;;;;;6.64;75.28;98853.09;102292;1292;62766;-25
2022/11/15 11:10:28;;;;;;;7.80;4.60;;;;;;;6.57;75.49;98850.08;102106;1300;76413;-25
2022/11/15 11:13:23;;;;;;;14.00;6.40;;;;;;;6.87;75.01;98844.21;102271;1302;76826;-25
2022/11/15 11:16:05;;;;;;;10.40;5.50;;;;;;;7.19;73.74;98846.83;102102;1303;74116;-25
2022/11/15 11:18:58;;;;;;;9.30;7.00;;;;;;;7.21;73.26;98842.70;102313;1302;62978;-24
2022/11/15 11:21:32;;;;;;;9.70;5.80;;;;;;;7.16;72.99;98839.95;102325;1302;61815;-25
2022/11/15 11:24:25;;;;;;;9.40;6.60;;;;;;;6.99;74.08;98843.09;102218;1299;76464;-25
2022/11/15 11:27:01;;;;;;;8.90;5.80;;;;;;;6.84;74.28;98836.16;102303;1301;76808;-25
2022/11/15 11:29:51;;;;;;;9.00;4.70;;;;;;;6.76;74.63;98834.84;102074;1288;75251;-25
2022/11/15 11:32:43;;;;;;;8.90;5.60;;;;;;;7.22;73.78;98835.42;102299;1294;61587;-25
2022/11/15 11:35:20;;;;;;;8.00;5.70;;;;;;;7.46;72.44;98834.92;102185;1301;62656;-25
2022/11/15 11:37:54;;;;;;;8.30;5.80;;;;;;;7.33;72.53;98828.92;102118;1301;75328;-25
2022/11/15 11:40:43;;;;;;;11.30;6.50;;;;;;;7.08;73.34;98826.40;102165;1302;77157;-25
2022/11/15 11:43:13;;;;;;;11.70;7.40;;;;;;;6.83;74.42;98817.92;102333;1299;75145;-25
2022/11/15 11:45:58;;;;;;;8.30;5.30;;;;;;;6.74;74.52;98816.29;102145;1301;62143;-24
2022/11/15 11:48:45;;;;;;;8.10;4.80;;;;;;;6.90;74.91;98817.08;102298;1301;61845;-25
2022/11/15 11:51:15;;;;;;;10.60;5.70;;;;;;;7.55;73.19;98812.69;102321;1293;76367;-25
2022/11/15 11:53:50;;;;;;;8.40;5.60;;;;;;;7.63;72.53;98808.34;102143;1294;77977;-25
2022/11/15 11:56:31;;;;;;;11.10;6.00;;;;;;;7.51;72.28;98803.64;101918;1298;73737;-25
2022/11/15 11:59:07;;;;;;;11.00;7.00;;;;;;;7.27;72.67;98803.64;101983;1302;61881;-25
2022/11/15 12:01:41;;;;;;;9.90;5.70;;;;;;;6.99;73.38;98799.20;101893;1301;62983;-25
2022/11/15 12:04:20;;;;;;;9.40;5.50;;;;;;;6.67;74.60;98793.83;102070;1294;76124;-24
2022/11/15 12:06:51;;;;;;;10.00;6.10;;;;;;;6.69;75.22;98795.92;102195;1295;75880;-25
2022/11/15 12:09:38;;;;;;;8.70;5.30;;;;;;;7.15;73.96;98791.89;102183;1301;74808;-25
2022/11/15 12:12:41;;;;;;;9.80;6.90;;;;;;;7.26;73.18;98792.33;102000;1304;62810;-25
2022/11/15 12:15:26;;;;;;;14.50;7.20;;;;;;;7.09;73.15;98790.98;102103;1295;62852;-25
2022/11/15 12:17:55;;;;;;;12.40;6.80;;;;;;;6.87;73.84;98792.09;102004;1301;76755;-25
2022/11/15 12:20:30;;;;;;;10.70;7.40;;;;;;;6.73;74.34;98788.23;101963;1299;76846;-25
2022/11/15 12:23:18;;;;;;;8.90;5.70;;;;;;;6.63;75.20;98780.67;102098;1302;75243;-24
2022/11/15 12:25:50;;;;;;;9.50;6.30;;;;;;;7.21;74.17;98776.46;102089;1299;61837;-25
2022/11/15 12:28:46;;;;;;;8.30;5.50;;;;;;;7.47;72.64;98772.55;101958;1297;62817;-25
2022/11/15 12:31:43;;;;;;;8.80;6.70;;;;;;;7.43;72.79;98769.02;101981;1301;75141;-25
2022/11/15 12:34:13;;;;;;;10.90;7.10;;;;;;;7.22;72.99;98767.05;102301;1294;76896;-24
2022/11/15 12:36:42;;;;;;;9.80;6.90;;;;;;;6.97;73.76;98762.77;102164;1300;75197;-25
2022/11/15 12:39:10;;;;;;;11.20;7.20;;;;;;;6.70;74.84;98758.98;102101;1301;62834;-24
2022/11/15 12:41:38;;;;;;;12.50;5.90;;;;;;;6.69;75.11;98759.54;102171;1299;61836;-27
2022/11/15 12:44:30;;;;;;;9.80;6.60;;;;;;;7.17;74.08;98762.77;102295;1298;76558;-26
2022/11/15 12:46:57;;;;;;;8.20;5.70;;;;;;;7.39;73.41;98761.37;102231;1302;76726;-26
2022/11/15 12:49:42;;;;;;;8.00;6.00;;;;;;;7.34;72.79;98753.76;102324;1301;75234;-26
2022/11/15 12:52:09;;;;;;;7.20;4.70;;;;;;;7.15;73.07;98752.36;102197;1302;61816;-26
2022/11/15 12:54:36;;;;;;;8.90;6.30;;;;;;;6.77;74.50;98746.95;102161;1299;61593;-27
2022/11/15 12:57:03;;;;;;;10.20;6.80;;;;;;;6.57;75.37;98743.48;102324;1299;76329;-27
2022/11/15 12:59:49;;;;;;;7.20;4.80;;;;;;;6.53;75.70;98741.51;102345;1298;76615;-25